sensor_id;sensor_type;location;lat;lon;timestamp;pressure;altitude;pressure_sealevel;temperature;humidity
38718;BME280;24468;52.128;9.278;2023-02-23T00:01:40;100286.97;;;8.96;100.00
38718;BME280;24468;52.128;9.278;2023-02-23T00:04:07;100298.94;;;9.11;100.00
38718;BME280;24468;52.128;9.278;2023-02-23T00:06:34;100299.72;;;9.13;100.00
38718;BME280;24468;52.128;9.278;2023-02-23T00:09:01;100297.56;;;9.21;100.00
38718;BME280;24468;52.128;9.278;2023-02-23T00:11:27;100291.00;;;9.28;100.00
38718;BME280;24468;52.128;9.278;2023-02-23T00:13:53;100294.38;;;9.33;100.00
38718;BME280;24468;52.128;9.278;2023-02-23T00:16:24;100289.38;;;9.45;100.00
38718;BME280;24468;52.128;9.278;2023-02-23T00:18:56;100293.50;;;9.33;100.00
38718;BME280;24468;52.128;9.278;2023-02-23T00:21:29;100288.38;;;9.47;100.00
38718;BME280;24468;52.128;9.278;2023-02-23T00:24:03;100291.94;;;9.48;100.00
38718;BME280;24468;52.128;9.278;2023-02-23T00:26:30;100283.44;;;9.57;100.00
38718;BME280;24468;52.128;9.278;2023-02-23T00:29:01;100277.06;;;9.60;100.00
38718;BME280;24468;52.128;9.278;2023-02-23T00:31:28;100292.34;;;8.96;100.00
38718;BME280;24468;52.128;9.278;2023-02-23T00:33:57;100290.09;;;9.07;100.00
38718;BME280;24468;52.128;9.278;2023-02-23T00:36:28;100295.00;;;8.98;100.00
38718;BME280;24468;52.128;9.278;2023-02-23T00:38:56;100291.38;;;8.77;100.00
38718;BME280;24468;52.128;9.278;2023-02-23T00:41:23;100292.66;;;8.88;100.00
38718;BME280;24468;52.128;9.278;2023-02-23T00:43:57;100298.81;;;8.92;100.00
38718;BME280;24468;52.128;9.278;2023-02-23T00:46:26;100297.81;;;8.73;100.00
38718;BME280;24468;52.128;9.278;2023-02-23T00:48:54;100297.03;;;8.47;100.00
38718;BME280;24468;52.128;9.278;2023-02-23T00:51:22;100300.00;;;8.63;100.00
38718;BME280;24468;52.128;9.278;2023-02-23T00:53:48;100301.00;;;8.60;100.00
38718;BME280;24468;52.128;9.278;2023-02-23T00:56:15;100304.34;;;8.67;100.00
38718;BME280;24468;52.128;9.278;2023-02-23T00:58:41;100305.00;;;8.50;100.00
38718;BME280;24468;52.128;9.278;2023-02-23T01:01:12;100314.28;;;8.18;100.00
38718;BME280;24468;52.128;9.278;2023-02-23T01:03:40;100310.19;;;8.31;100.00
38718;BME280;24468;52.128;9.278;2023-02-23T01:06:10;100313.41;;;8.17;100.00
38718;BME280;24468;52.128;9.278;2023-02-23T01:08:40;100302.63;;;8.42;100.00
38718;BME280;24468;52.128;9.278;2023-02-23T01:11:19;100317.50;;;8.04;100.00
38718;BME280;24468;52.128;9.278;2023-02-23T01:13:46;100321.47;;;7.69;100.00
38718;BME280;24468;52.128;9.278;2023-02-23T01:16:16;100319.81;;;8.13;100.00
38718;BME280;24468;52.128;9.278;2023-02-23T01:18:43;100327.94;;;8.35;100.00
38718;BME280;24468;52.128;9.278;2023-02-23T01:21:28;100318.38;;;8.52;100.00
38718;BME280;24468;52.128;9.278;2023-02-23T01:23:55;100315.78;;;8.72;100.00
38718;BME280;24468;52.128;9.278;2023-02-23T01:26:28;100325.28;;;8.81;100.00
38718;BME280;24468;52.128;9.278;2023-02-23T01:29:00;100323.50;;;8.80;100.00
38718;BME280;24468;52.128;9.278;2023-02-23T01:31:28;100323.47;;;8.81;100.00
38718;BME280;24468;52.128;9.278;2023-02-23T01:33:55;100325.59;;;8.73;100.00
38718;BME280;24468;52.128;9.278;2023-02-23T01:36:21;100322.94;;;8.72;100.00
38718;BME280;24468;52.128;9.278;2023-02-23T01:38:48;100324.50;;;8.55;100.00
38718;BME280;24468;52.128;9.278;2023-02-23T01:41:14;100322.44;;;8.38;100.00
38718;BME280;24468;52.128;9.278;2023-02-23T01:44:02;100333.56;;;8.29;100.00
38718;BME280;24468;52.128;9.278;2023-02-23T01:46:35;100334.25;;;8.11;100.00
38718;BME280;24468;52.128;9.278;2023-02-23T01:49:02;100322.34;;;8.18;100.00
38718;BME280;24468;52.128;9.278;2023-02-23T01:51:38;100326.31;;;8.55;100.00
38718;BME280;24468;52.128;9.278;2023-02-23T01:54:18;100324.94;;;8.66;100.00
38718;BME280;24468;52.128;9.278;2023-02-23T01:56:49;100325.84;;;8.67;100.00
38718;BME280;24468;52.128;9.278;2023-02-23T01:59:32;100328.53;;;8.89;100.00
38718;BME280;24468;52.128;9.278;2023-02-23T02:02:00;100319.22;;;8.98;100.00
38718;BME280;24468;52.128;9.278;2023-02-23T02:04:30;100326.03;;;8.84;100.00
38718;BME280;24468;52.128;9.278;2023-02-23T02:07:02;100322.72;;;8.78;100.00
38718;BME280;24468;52.128;9.278;2023-02-23T02:09:28;100327.09;;;8.80;100.00
38718;BME280;24468;52.128;9.278;2023-02-23T02:11:54;100318.81;;;8.63;100.00
38718;BME280;24468;52.128;9.278;2023-02-23T02:14:24;100324.50;;;8.08;100.00
38718;BME280;24468;52.128;9.278;2023-02-23T02:29:42;100306.63;;;8.76;100.00
38718;BME280;24468;52.128;9.278;2023-02-23T02:35:36;100319.44;;;8.48;100.00
38718;BME280;24468;52.128;9.278;2023-02-23T02:41:16;100333.88;;;8.20;100.00
38718;BME280;24468;52.128;9.278;2023-02-23T02:44:34;100334.94;;;8.41;100.00
38718;BME280;24468;52.128;9.278;2023-02-23T02:47:03;100325.03;;;8.41;100.00
38718;BME280;24468;52.128;9.278;2023-02-23T02:50:27;100316.66;;;8.73;100.00
38718;BME280;24468;52.128;9.278;2023-02-23T02:52:49;100320.53;;;8.87;100.00
38718;BME280;24468;52.128;9.278;2023-02-23T02:55:26;100321.81;;;8.77;100.00
38718;BME280;24468;52.128;9.278;2023-02-23T02:57:57;100312.63;;;8.61;100.00
38718;BME280;24468;52.128;9.278;2023-02-23T03:00:30;100311.50;;;8.88;100.00
38718;BME280;24468;52.128;9.278;2023-02-23T03:03:43;100317.38;;;8.98;100.00
38718;BME280;24468;52.128;9.278;2023-02-23T03:06:36;100319.13;;;8.99;100.00
38718;BME280;24468;52.128;9.278;2023-02-23T03:09:40;100314.13;;;8.46;100.00
38718;BME280;24468;52.128;9.278;2023-02-23T03:12:52;100315.53;;;8.78;100.00
38718;BME280;24468;52.128;9.278;2023-02-23T03:16:02;100309.72;;;8.89;100.00
38718;BME280;24468;52.128;9.278;2023-02-23T03:22:27;100307.72;;;9.15;100.00
38718;BME280;24468;52.128;9.278;2023-02-23T03:31:27;100311.97;;;9.00;100.00
38718;BME280;24468;52.128;9.278;2023-02-23T03:34:52;100307.44;;;9.00;100.00
38718;BME280;24468;52.128;9.278;2023-02-23T03:37:47;100304.72;;;9.22;100.00
38718;BME280;24468;52.128;9.278;2023-02-23T03:40:39;100303.09;;;9.18;100.00
38718;BME280;24468;52.128;9.278;2023-02-23T03:43:37;100305.66;;;9.21;100.00
38718;BME280;24468;52.128;9.278;2023-02-23T03:46:26;100297.38;;;9.26;100.00
38718;BME280;24468;52.128;9.278;2023-02-23T03:49:13;100300.22;;;9.43;100.00
38718;BME280;24468;52.128;9.278;2023-02-23T03:52:06;100294.78;;;9.45;100.00
38718;BME280;24468;52.128;9.278;2023-02-23T03:54:58;100303.34;;;9.54;100.00
38718;BME280;24468;52.128;9.278;2023-02-23T03:57:49;100295.72;;;9.64;100.00
38718;BME280;24468;52.128;9.278;2023-02-23T04:00:42;100301.22;;;9.20;100.00
38718;BME280;24468;52.128;9.278;2023-02-23T04:03:32;100304.06;;;9.58;100.00
38718;BME280;24468;52.128;9.278;2023-02-23T04:06:18;100309.84;;;9.69;100.00
38718;BME280;24468;52.128;9.278;2023-02-23T04:09:06;100305.72;;;9.81;100.00
38718;BME280;24468;52.128;9.278;2023-02-23T04:12:15;100296.34;;;9.90;100.00
38718;BME280;24468;52.128;9.278;2023-02-23T04:17:38;100305.84;;;9.98;100.00
38718;BME280;24468;52.128;9.278;2023-02-23T04:20:05;100304.09;;;9.97;100.00
38718;BME280;24468;52.128;9.278;2023-02-23T04:22:31;100303.06;;;10.00;100.00
38718;BME280;24468;52.128;9.278;2023-02-23T04:24:57;100307.31;;;10.06;100.00
38718;BME280;24468;52.128;9.278;2023-02-23T04:27:22;100308.41;;;10.01;100.00
38718;BME280;24468;52.128;9.278;2023-02-23T04:29:48;100313.50;;;10.08;100.00
38718;BME280;24468;52.128;9.278;2023-02-23T04:32:16;100308.59;;;9.97;100.00
38718;BME280;24468;52.128;9.278;2023-02-23T04:34:43;100308.47;;;10.00;100.00
38718;BME280;24468;52.128;9.278;2023-02-23T04:37:09;100313.56;;;10.06;100.00
38718;BME280;24468;52.128;9.278;2023-02-23T04:39:34;100306.81;;;10.16;100.00
38718;BME280;24468;52.128;9.278;2023-02-23T04:42:00;100305.59;;;10.23;100.00
38718;BME280;24468;52.128;9.278;2023-02-23T04:44:25;100307.97;;;10.31;100.00
38718;BME280;24468;52.128;9.278;2023-02-23T04:46:51;100314.38;;;10.29;100.00
38718;BME280;24468;52.128;9.278;2023-02-23T04:49:16;100307.22;;;10.28;100.00
38718;BME280;24468;52.128;9.278;2023-02-23T04:51:42;100309.72;;;10.32;100.00
38718;BME280;24468;52.128;9.278;2023-02-23T04:54:08;100304.38;;;10.31;100.00
38718;BME280;24468;52.128;9.278;2023-02-23T04:56:33;100315.63;;;10.20;100.00
38718;BME280;24468;52.128;9.278;2023-02-23T04:58:59;100303.97;;;10.19;100.00
38718;BME280;24468;52.128;9.278;2023-02-23T05:01:25;100309.84;;;10.29;100.00
38718;BME280;24468;52.128;9.278;2023-02-23T05:03:51;100313.72;;;10.42;100.00
38718;BME280;24468;52.128;9.278;2023-02-23T05:06:17;100317.00;;;10.49;100.00
38718;BME280;24468;52.128;9.278;2023-02-23T05:08:43;100306.88;;;10.54;100.00
38718;BME280;24468;52.128;9.278;2023-02-23T05:11:11;100309.56;;;10.54;100.00
38718;BME280;24468;52.128;9.278;2023-02-23T05:13:37;100317.28;;;10.62;100.00
38718;BME280;24468;52.128;9.278;2023-02-23T05:16:03;100316.28;;;10.64;100.00
38718;BME280;24468;52.128;9.278;2023-02-23T05:18:29;100317.13;;;10.65;100.00
38718;BME280;24468;52.128;9.278;2023-02-23T05:21:05;100316.34;;;10.63;100.00
38718;BME280;24468;52.128;9.278;2023-02-23T05:23:33;100315.16;;;10.68;100.00
38718;BME280;24468;52.128;9.278;2023-02-23T05:26:05;100319.91;;;10.63;100.00
38718;BME280;24468;52.128;9.278;2023-02-23T05:28:33;100320.81;;;10.45;100.00
38718;BME280;24468;52.128;9.278;2023-02-23T05:31:00;100315.50;;;10.23;100.00
38718;BME280;24468;52.128;9.278;2023-02-23T05:33:25;100324.97;;;9.92;100.00
38718;BME280;24468;52.128;9.278;2023-02-23T05:35:51;100329.69;;;9.87;100.00
38718;BME280;24468;52.128;9.278;2023-02-23T05:38:16;100333.59;;;10.00;100.00
38718;BME280;24468;52.128;9.278;2023-02-23T05:40:42;100321.00;;;10.01;100.00
38718;BME280;24468;52.128;9.278;2023-02-23T05:43:08;100331.34;;;9.71;100.00
38718;BME280;24468;52.128;9.278;2023-02-23T05:45:33;100326.34;;;9.62;100.00
38718;BME280;24468;52.128;9.278;2023-02-23T05:47:59;100318.19;;;9.84;100.00
38718;BME280;24468;52.128;9.278;2023-02-23T05:50:25;100321.63;;;9.67;100.00
38718;BME280;24468;52.128;9.278;2023-02-23T05:52:51;100314.81;;;9.78;100.00
38718;BME280;24468;52.128;9.278;2023-02-23T05:55:16;100321.16;;;9.77;100.00
38718;BME280;24468;52.128;9.278;2023-02-23T05:57:42;100326.34;;;9.82;100.00
38718;BME280;24468;52.128;9.278;2023-02-23T06:00:11;100324.84;;;9.95;100.00
38718;BME280;24468;52.128;9.278;2023-02-23T06:02:38;100321.78;;;10.03;100.00
38718;BME280;24468;52.128;9.278;2023-02-23T06:05:04;100319.97;;;10.03;100.00
38718;BME280;24468;52.128;9.278;2023-02-23T06:07:30;100320.72;;;10.07;100.00
38718;BME280;24468;52.128;9.278;2023-02-23T06:09:56;100322.31;;;10.11;100.00
38718;BME280;24468;52.128;9.278;2023-02-23T06:12:22;100326.78;;;10.12;100.00
38718;BME280;24468;52.128;9.278;2023-02-23T06:14:48;100321.81;;;10.22;100.00
38718;BME280;24468;52.128;9.278;2023-02-23T06:17:15;100327.91;;;10.27;100.00
38718;BME280;24468;52.128;9.278;2023-02-23T06:19:41;100326.19;;;10.24;100.00
38718;BME280;24468;52.128;9.278;2023-02-23T06:22:06;100324.53;;;10.22;100.00
38718;BME280;24468;52.128;9.278;2023-02-23T06:24:32;100331.44;;;10.29;100.00
38718;BME280;24468;52.128;9.278;2023-02-23T06:26:58;100332.81;;;10.17;100.00
38718;BME280;24468;52.128;9.278;2023-02-23T06:29:25;100338.88;;;10.22;100.00
38718;BME280;24468;52.128;9.278;2023-02-23T06:31:50;100340.56;;;10.25;100.00
38718;BME280;24468;52.128;9.278;2023-02-23T06:34:16;100333.31;;;10.27;100.00
38718;BME280;24468;52.128;9.278;2023-02-23T06:36:43;100341.56;;;10.22;100.00
38718;BME280;24468;52.128;9.278;2023-02-23T06:39:10;100343.41;;;10.22;100.00
38718;BME280;24468;52.128;9.278;2023-02-23T06:41:35;100342.72;;;10.17;100.00
38718;BME280;24468;52.128;9.278;2023-02-23T06:44:01;100349.41;;;10.08;100.00
38718;BME280;24468;52.128;9.278;2023-02-23T06:46:27;100353.88;;;10.09;100.00
38718;BME280;24468;52.128;9.278;2023-02-23T06:48:56;100359.38;;;10.06;100.00
38718;BME280;24468;52.128;9.278;2023-02-23T06:51:22;100354.47;;;9.95;100.00
38718;BME280;24468;52.128;9.278;2023-02-23T06:53:48;100354.72;;;9.91;100.00
38718;BME280;24468;52.128;9.278;2023-02-23T06:56:14;100366.06;;;9.97;100.00
38718;BME280;24468;52.128;9.278;2023-02-23T06:58:40;100358.81;;;9.99;100.00
38718;BME280;24468;52.128;9.278;2023-02-23T07:01:08;100365.72;;;10.05;100.00
38718;BME280;24468;52.128;9.278;2023-02-23T07:03:34;100365.06;;;10.00;100.00
38718;BME280;24468;52.128;9.278;2023-02-23T07:06:00;100371.16;;;9.85;100.00
38718;BME280;24468;52.128;9.278;2023-02-23T07:08:26;100371.41;;;9.78;100.00
38718;BME280;24468;52.128;9.278;2023-02-23T07:10:51;100363.41;;;9.77;100.00
38718;BME280;24468;52.128;9.278;2023-02-23T07:13:17;100375.56;;;9.65;100.00
38718;BME280;24468;52.128;9.278;2023-02-23T07:15:44;100366.63;;;9.85;100.00
38718;BME280;24468;52.128;9.278;2023-02-23T07:18:10;100375.03;;;9.98;100.00
38718;BME280;24468;52.128;9.278;2023-02-23T07:20:35;100379.41;;;10.00;100.00
38718;BME280;24468;52.128;9.278;2023-02-23T07:23:01;100388.78;;;10.12;100.00
38718;BME280;24468;52.128;9.278;2023-02-23T07:25:27;100385.72;;;10.20;100.00
38718;BME280;24468;52.128;9.278;2023-02-23T07:27:53;100383.78;;;10.23;100.00
38718;BME280;24468;52.128;9.278;2023-02-23T07:30:20;100391.47;;;10.33;100.00
38718;BME280;24468;52.128;9.278;2023-02-23T07:32:50;100387.34;;;10.24;100.00
38718;BME280;24468;52.128;9.278;2023-02-23T07:35:16;100389.72;;;10.11;100.00
38718;BME280;24468;52.128;9.278;2023-02-23T07:37:41;100392.44;;;10.32;100.00
38718;BME280;24468;52.128;9.278;2023-02-23T07:40:08;100384.72;;;10.43;100.00
38718;BME280;24468;52.128;9.278;2023-02-23T07:42:34;100389.00;;;10.47;100.00
38718;BME280;24468;52.128;9.278;2023-02-23T07:44:59;100391.94;;;10.42;100.00
38718;BME280;24468;52.128;9.278;2023-02-23T07:47:25;100393.34;;;10.31;100.00
38718;BME280;24468;52.128;9.278;2023-02-23T07:49:58;100396.94;;;10.31;100.00
38718;BME280;24468;52.128;9.278;2023-02-23T07:52:26;100394.91;;;10.36;100.00
38718;BME280;24468;52.128;9.278;2023-02-23T07:54:52;100395.50;;;10.22;100.00
38718;BME280;24468;52.128;9.278;2023-02-23T07:57:19;100394.16;;;10.33;100.00
38718;BME280;24468;52.128;9.278;2023-02-23T07:59:46;100398.53;;;10.35;100.00
38718;BME280;24468;52.128;9.278;2023-02-23T08:02:13;100403.53;;;10.24;100.00
38718;BME280;24468;52.128;9.278;2023-02-23T08:04:39;100402.25;;;10.12;100.00
38718;BME280;24468;52.128;9.278;2023-02-23T08:07:05;100404.47;;;10.02;100.00
38718;BME280;24468;52.128;9.278;2023-02-23T08:09:32;100405.00;;;10.11;100.00
38718;BME280;24468;52.128;9.278;2023-02-23T08:12:00;100412.97;;;10.14;100.00
38718;BME280;24468;52.128;9.278;2023-02-23T08:14:26;100404.06;;;10.12;100.00
38718;BME280;24468;52.128;9.278;2023-02-23T08:16:51;100409.41;;;10.13;100.00
38718;BME280;24468;52.128;9.278;2023-02-23T08:19:17;100409.19;;;10.18;100.00
38718;BME280;24468;52.128;9.278;2023-02-23T08:21:43;100412.81;;;10.17;100.00
38718;BME280;24468;52.128;9.278;2023-02-23T08:24:09;100408.97;;;10.22;100.00
38718;BME280;24468;52.128;9.278;2023-02-23T08:26:35;100409.06;;;10.21;100.00
38718;BME280;24468;52.128;9.278;2023-02-23T08:29:03;100410.88;;;10.20;100.00
38718;BME280;24468;52.128;9.278;2023-02-23T08:31:29;100417.47;;;10.13;100.00
38718;BME280;24468;52.128;9.278;2023-02-23T08:33:54;100415.66;;;10.14;100.00
38718;BME280;24468;52.128;9.278;2023-02-23T08:36:20;100421.59;;;10.22;100.00
38718;BME280;24468;52.128;9.278;2023-02-23T08:38:46;100423.53;;;10.39;100.00
38718;BME280;24468;52.128;9.278;2023-02-23T08:41:12;100425.38;;;10.38;100.00
38718;BME280;24468;52.128;9.278;2023-02-23T08:43:38;100427.31;;;9.94;100.00
38718;BME280;24468;52.128;9.278;2023-02-23T08:46:05;100424.88;;;10.08;100.00
38718;BME280;24468;52.128;9.278;2023-02-23T08:48:31;100429.75;;;10.20;100.00
38718;BME280;24468;52.128;9.278;2023-02-23T08:50:58;100433.81;;;10.31;100.00
38718;BME280;24468;52.128;9.278;2023-02-23T08:53:25;100426.25;;;10.18;100.00
38718;BME280;24468;52.128;9.278;2023-02-23T08:56:00;100429.09;;;10.15;100.00
38718;BME280;24468;52.128;9.278;2023-02-23T08:58:27;100437.38;;;10.11;100.00
38718;BME280;24468;52.128;9.278;2023-02-23T09:00:54;100433.22;;;10.22;100.00
38718;BME280;24468;52.128;9.278;2023-02-23T09:03:21;100427.13;;;10.19;100.00
38718;BME280;24468;52.128;9.278;2023-02-23T09:05:47;100432.44;;;10.20;100.00
38718;BME280;24468;52.128;9.278;2023-02-23T09:08:14;100439.63;;;10.20;100.00
38718;BME280;24468;52.128;9.278;2023-02-23T09:10:41;100438.63;;;10.22;100.00
38718;BME280;24468;52.128;9.278;2023-02-23T09:13:09;100435.16;;;10.20;100.00
38718;BME280;24468;52.128;9.278;2023-02-23T09:15:37;100453.72;;;10.06;100.00
38718;BME280;24468;52.128;9.278;2023-02-23T09:18:04;100443.34;;;10.17;100.00
38718;BME280;24468;52.128;9.278;2023-02-23T09:20:29;100452.19;;;10.21;100.00
38718;BME280;24468;52.128;9.278;2023-02-23T09:22:55;100448.41;;;10.25;100.00
38718;BME280;24468;52.128;9.278;2023-02-23T09:25:21;100452.44;;;10.37;100.00
38718;BME280;24468;52.128;9.278;2023-02-23T09:27:49;100454.16;;;10.38;100.00
38718;BME280;24468;52.128;9.278;2023-02-23T09:30:16;100457.97;;;10.12;100.00
38718;BME280;24468;52.128;9.278;2023-02-23T09:32:49;100454.59;;;10.29;100.00
38718;BME280;24468;52.128;9.278;2023-02-23T09:35:16;100457.16;;;10.32;100.00
38718;BME280;24468;52.128;9.278;2023-02-23T09:37:54;100452.88;;;10.26;100.00
38718;BME280;24468;52.128;9.278;2023-02-23T09:40:28;100457.19;;;10.30;100.00
38718;BME280;24468;52.128;9.278;2023-02-23T09:43:11;100462.16;;;10.19;100.00
38718;BME280;24468;52.128;9.278;2023-02-23T09:45:58;100460.66;;;9.91;100.00
38718;BME280;24468;52.128;9.278;2023-02-23T09:48:27;100459.66;;;9.94;100.00
38718;BME280;24468;52.128;9.278;2023-02-23T09:50:56;100465.50;;;9.83;100.00
38718;BME280;24468;52.128;9.278;2023-02-23T09:53:36;100459.00;;;10.09;100.00
38718;BME280;24468;52.128;9.278;2023-02-23T09:56:34;100459.53;;;9.76;100.00
38718;BME280;24468;52.128;9.278;2023-02-23T09:59:04;100465.66;;;10.00;100.00
38718;BME280;24468;52.128;9.278;2023-02-23T10:02:26;100470.16;;;9.79;100.00
38718;BME280;24468;52.128;9.278;2023-02-23T10:05:02;100469.72;;;9.90;100.00
38718;BME280;24468;52.128;9.278;2023-02-23T10:07:55;100463.22;;;9.74;100.00
38718;BME280;24468;52.128;9.278;2023-02-23T10:22:26;100473.53;;;9.85;100.00
38718;BME280;24468;52.128;9.278;2023-02-23T10:25:04;100475.16;;;9.89;100.00
38718;BME280;24468;52.128;9.278;2023-02-23T10:27:44;100479.06;;;10.02;100.00
38718;BME280;24468;52.128;9.278;2023-02-23T10:30:20;100470.81;;;10.07;100.00
38718;BME280;24468;52.128;9.278;2023-02-23T10:33:03;100475.31;;;10.27;100.00
38718;BME280;24468;52.128;9.278;2023-02-23T10:35:30;100477.72;;;9.92;100.00
38718;BME280;24468;52.128;9.278;2023-02-23T10:37:57;100486.06;;;10.06;100.00
38718;BME280;24468;52.128;9.278;2023-02-23T10:40:27;100478.34;;;9.98;100.00
38718;BME280;24468;52.128;9.278;2023-02-23T10:42:55;100481.75;;;10.22;100.00
38718;BME280;24468;52.128;9.278;2023-02-23T10:45:25;100472.50;;;10.69;100.00
38718;BME280;24468;52.128;9.278;2023-02-23T10:48:00;100478.94;;;10.25;100.00
38718;BME280;24468;52.128;9.278;2023-02-23T10:50:29;100479.94;;;10.02;100.00
38718;BME280;24468;52.128;9.278;2023-02-23T10:53:03;100481.84;;;10.21;100.00
38718;BME280;24468;52.128;9.278;2023-02-23T10:55:34;100480.56;;;10.09;100.00
38718;BME280;24468;52.128;9.278;2023-02-23T10:58:09;100481.59;;;10.07;100.00
38718;BME280;24468;52.128;9.278;2023-02-23T11:00:39;100474.06;;;10.35;100.00
38718;BME280;24468;52.128;9.278;2023-02-23T11:03:28;100463.84;;;10.62;100.00
38718;BME280;24468;52.128;9.278;2023-02-23T11:05:56;100457.81;;;10.37;100.00
38718;BME280;24468;52.128;9.278;2023-02-23T11:08:36;100470.63;;;10.32;100.00
38718;BME280;24468;52.128;9.278;2023-02-23T11:13:48;100466.34;;;10.26;100.00
38718;BME280;24468;52.128;9.278;2023-02-23T11:16:16;100470.97;;;10.22;100.00
38718;BME280;24468;52.128;9.278;2023-02-23T11:18:56;100469.25;;;10.42;100.00
38718;BME280;24468;52.128;9.278;2023-02-23T11:23:57;100466.72;;;10.17;100.00
38718;BME280;24468;52.128;9.278;2023-02-23T11:26:39;100465.94;;;10.15;100.00
38718;BME280;24468;52.128;9.278;2023-02-23T11:29:35;100461.59;;;9.48;100.00
38718;BME280;24468;52.128;9.278;2023-02-23T11:32:13;100458.69;;;9.74;100.00
38718;BME280;24468;52.128;9.278;2023-02-23T11:34:40;100466.66;;;9.77;100.00
38718;BME280;24468;52.128;9.278;2023-02-23T11:40:22;100461.72;;;9.67;100.00
38718;BME280;24468;52.128;9.278;2023-02-23T11:43:06;100463.09;;;9.55;100.00
38718;BME280;24468;52.128;9.278;2023-02-23T11:45:52;100471.63;;;9.22;100.00
38718;BME280;24468;52.128;9.278;2023-02-23T11:50:48;100467.09;;;9.23;100.00
38718;BME280;24468;52.128;9.278;2023-02-23T11:53:17;100457.34;;;9.20;100.00
38718;BME280;24468;52.128;9.278;2023-02-23T11:55:51;100465.22;;;9.25;100.00
38718;BME280;24468;52.128;9.278;2023-02-23T12:01:40;100452.66;;;9.25;100.00
38718;BME280;24468;52.128;9.278;2023-02-23T12:04:39;100451.19;;;9.61;100.00
38718;BME280;24468;52.128;9.278;2023-02-23T12:07:43;100445.75;;;9.40;100.00
38718;BME280;24468;52.128;9.278;2023-02-23T12:10:20;100453.47;;;9.27;100.00
38718;BME280;24468;52.128;9.278;2023-02-23T12:13:01;100445.44;;;9.26;100.00
38718;BME280;24468;52.128;9.278;2023-02-23T12:16:17;100442.75;;;9.26;100.00
38718;BME280;24468;52.128;9.278;2023-02-23T12:21:47;100441.50;;;9.34;100.00
38718;BME280;24468;52.128;9.278;2023-02-23T12:24:35;100439.19;;;9.47;100.00
38718;BME280;24468;52.128;9.278;2023-02-23T12:27:17;100442.63;;;9.51;100.00
38718;BME280;24468;52.128;9.278;2023-02-23T12:32:50;100443.13;;;9.39;100.00
38718;BME280;24468;52.128;9.278;2023-02-23T12:35:40;100438.66;;;9.38;100.00
38718;BME280;24468;52.128;9.278;2023-02-23T12:41:10;100430.22;;;9.47;100.00
38718;BME280;24468;52.128;9.278;2023-02-23T12:43:50;100439.84;;;9.74;100.00
38718;BME280;24468;52.128;9.278;2023-02-23T12:46:29;100435.28;;;9.76;100.00
38718;BME280;24468;52.128;9.278;2023-02-23T12:52:05;100433.47;;;9.55;100.00
38718;BME280;24468;52.128;9.278;2023-02-23T12:54:36;100438.91;;;9.96;100.00
38718;BME280;24468;52.128;9.278;2023-02-23T13:00:33;100432.59;;;9.76;100.00
38718;BME280;24468;52.128;9.278;2023-02-23T13:06:11;100442.41;;;9.77;100.00
38718;BME280;24468;52.128;9.278;2023-02-23T13:14:58;100446.69;;;9.61;100.00
38718;BME280;24468;52.128;9.278;2023-02-23T13:20:34;100442.06;;;9.43;100.00
38718;BME280;24468;52.128;9.278;2023-02-23T13:29:37;100438.81;;;9.34;100.00
38718;BME280;24468;52.128;9.278;2023-02-23T13:32:12;100436.31;;;9.08;100.00
38718;BME280;24468;52.128;9.278;2023-02-23T13:34:52;100437.22;;;9.07;100.00
38718;BME280;24468;52.128;9.278;2023-02-23T13:37:42;100440.56;;;9.35;100.00
38718;BME280;24468;52.128;9.278;2023-02-23T13:40:35;100440.47;;;9.15;100.00
38718;BME280;24468;52.128;9.278;2023-02-23T13:43:17;100434.97;;;9.40;100.00
38718;BME280;24468;52.128;9.278;2023-02-23T13:48:45;100448.56;;;9.15;100.00
38718;BME280;24468;52.128;9.278;2023-02-23T13:51:36;100436.66;;;9.43;100.00
38718;BME280;24468;52.128;9.278;2023-02-23T13:54:21;100443.06;;;9.18;100.00
38718;BME280;24468;52.128;9.278;2023-02-23T13:56:56;100437.75;;;9.17;100.00
38718;BME280;24468;52.128;9.278;2023-02-23T13:59:29;100429.28;;;9.26;100.00
38718;BME280;24468;52.128;9.278;2023-02-23T14:02:26;100443.44;;;9.09;100.00
38718;BME280;24468;52.128;9.278;2023-02-23T14:05:23;100444.09;;;8.92;100.00
38718;BME280;24468;52.128;9.278;2023-02-23T14:08:33;100452.41;;;8.86;100.00
38718;BME280;24468;52.128;9.278;2023-02-23T14:11:00;100446.53;;;8.98;100.00
38718;BME280;24468;52.128;9.278;2023-02-23T14:13:33;100448.19;;;8.79;100.00
38718;BME280;24468;52.128;9.278;2023-02-23T14:16:16;100452.06;;;8.95;100.00
38718;BME280;24468;52.128;9.278;2023-02-23T14:19:10;100447.53;;;8.96;100.00
38718;BME280;24468;52.128;9.278;2023-02-23T14:21:49;100451.94;;;8.98;100.00
38718;BME280;24468;52.128;9.278;2023-02-23T14:24:26;100454.44;;;9.03;100.00
38718;BME280;24468;52.128;9.278;2023-02-23T14:27:10;100461.53;;;9.05;100.00
38718;BME280;24468;52.128;9.278;2023-02-23T14:32:29;100451.47;;;8.87;100.00
38718;BME280;24468;52.128;9.278;2023-02-23T14:35:01;100451.31;;;8.92;100.00
38718;BME280;24468;52.128;9.278;2023-02-23T14:37:40;100453.56;;;9.02;100.00
38718;BME280;24468;52.128;9.278;2023-02-23T14:40:21;100462.16;;;8.88;100.00
38718;BME280;24468;52.128;9.278;2023-02-23T14:42:51;100453.25;;;9.10;100.00
38718;BME280;24468;52.128;9.278;2023-02-23T14:45:37;100456.28;;;9.02;100.00
38718;BME280;24468;52.128;9.278;2023-02-23T14:48:11;100452.53;;;9.28;100.00
38718;BME280;24468;52.128;9.278;2023-02-23T14:50:38;100455.78;;;9.37;100.00
38718;BME280;24468;52.128;9.278;2023-02-23T14:53:15;100444.06;;;9.38;100.00
38718;BME280;24468;52.128;9.278;2023-02-23T14:55:42;100458.19;;;9.21;100.00